sensor_id;sensor_type;location;lat;lon;timestamp;P1;durP1;ratioP1;P2;durP2;ratioP2
1224;SDS011;602;48.000;7.840;2023-02-28T00:00:00;0.70;;;0.40;;
1224;SDS011;602;48.000;7.840;2023-02-28T00:02:33;0.60;;;0.50;;
1224;SDS011;602;48.000;7.840;2023-02-28T00:05:00;0.30;;;0.30;;
1224;SDS011;602;48.000;7.840;2023-02-28T00:07:28;2.47;;;1.60;;
1224;SDS011;602;48.000;7.840;2023-02-28T00:09:55;2.97;;;1.60;;
1224;SDS011;602;48.000;7.840;2023-02-28T00:12:23;1.23;;;0.80;;
1224;SDS011;602;48.000;7.840;2023-02-28T00:14:50;3.33;;;1.50;;
1224;SDS011;602;48.000;7.840;2023-02-28T00:17:17;0.40;;;0.40;;
1224;SDS011;602;48.000;7.840;2023-02-28T00:19:47;0.60;;;0.47;;
1224;SDS011;602;48.000;7.840;2023-02-28T00:22:14;1.77;;;1.37;;
1224;SDS011;602;48.000;7.840;2023-02-28T00:24:41;0.57;;;0.40;;
1224;SDS011;602;48.000;7.840;2023-02-28T00:27:08;0.90;;;0.57;;
1224;SDS011;602;48.000;7.840;2023-02-28T00:29:37;0.60;;;0.60;;
1224;SDS011;602;48.000;7.840;2023-02-28T00:32:04;0.50;;;0.50;;
1224;SDS011;602;48.000;7.840;2023-02-28T00:34:32;2.50;;;1.93;;
1224;SDS011;602;48.000;7.840;2023-02-28T00:37:02;0.80;;;0.70;;
1224;SDS011;602;48.000;7.840;2023-02-28T00:39:30;0.60;;;0.60;;
1224;SDS011;602;48.000;7.840;2023-02-28T00:41:59;0.70;;;0.70;;
1224;SDS011;602;48.000;7.840;2023-02-28T00:44:26;1.87;;;1.77;;
1224;SDS011;602;48.000;7.840;2023-02-28T00:46:54;1.40;;;1.20;;
1224;SDS011;602;48.000;7.840;2023-02-28T00:49:21;1.10;;;0.90;;
1224;SDS011;602;48.000;7.840;2023-02-28T00:51:48;2.53;;;1.60;;
1224;SDS011;602;48.000;7.840;2023-02-28T00:54:17;0.70;;;0.53;;
1224;SDS011;602;48.000;7.840;2023-02-28T00:56:44;0.80;;;0.77;;
1224;SDS011;602;48.000;7.840;2023-02-28T00:59:11;1.27;;;0.83;;
1224;SDS011;602;48.000;7.840;2023-02-28T01:01:39;0.63;;;0.63;;
1224;SDS011;602;48.000;7.840;2023-02-28T01:04:07;0.70;;;0.60;;
1224;SDS011;602;48.000;7.840;2023-02-28T01:06:34;0.77;;;0.77;;
1224;SDS011;602;48.000;7.840;2023-02-28T01:09:02;0.40;;;0.40;;
1224;SDS011;602;48.000;7.840;2023-02-28T01:11:30;0.90;;;0.80;;
1224;SDS011;602;48.000;7.840;2023-02-28T01:13:57;4.80;;;1.13;;
1224;SDS011;602;48.000;7.840;2023-02-28T01:16:25;0.50;;;0.50;;
1224;SDS011;602;48.000;7.840;2023-02-28T01:18:52;1.17;;;1.10;;
1224;SDS011;602;48.000;7.840;2023-02-28T01:21:21;0.60;;;0.60;;
1224;SDS011;602;48.000;7.840;2023-02-28T01:23:48;0.80;;;0.80;;
1224;SDS011;602;48.000;7.840;2023-02-28T01:26:16;2.10;;;1.30;;
1224;SDS011;602;48.000;7.840;2023-02-28T01:28:44;1.13;;;0.60;;
1224;SDS011;602;48.000;7.840;2023-02-28T01:31:11;1.13;;;0.97;;
1224;SDS011;602;48.000;7.840;2023-02-28T01:33:38;2.87;;;0.80;;
1224;SDS011;602;48.000;7.840;2023-02-28T01:36:06;1.40;;;1.30;;
1224;SDS011;602;48.000;7.840;2023-02-28T01:38:36;0.40;;;0.33;;
1224;SDS011;602;48.000;7.840;2023-02-28T01:41:04;0.50;;;0.50;;
1224;SDS011;602;48.000;7.840;2023-02-28T01:43:32;0.60;;;0.57;;
1224;SDS011;602;48.000;7.840;2023-02-28T01:46:18;1.07;;;0.53;;
1224;SDS011;602;48.000;7.840;2023-02-28T01:48:45;0.73;;;0.73;;
1224;SDS011;602;48.000;7.840;2023-02-28T01:51:18;0.70;;;0.70;;
1224;SDS011;602;48.000;7.840;2023-02-28T01:53:51;0.70;;;0.60;;
1224;SDS011;602;48.000;7.840;2023-02-28T01:56:22;0.53;;;0.50;;
1224;SDS011;602;48.000;7.840;2023-02-28T01:58:54;0.50;;;0.50;;
1224;SDS011;602;48.000;7.840;2023-02-28T02:01:22;5.07;;;1.57;;
1224;SDS011;602;48.000;7.840;2023-02-28T02:03:52;3.37;;;1.77;;
1224;SDS011;602;48.000;7.840;2023-02-28T02:06:21;1.13;;;0.70;;
1224;SDS011;602;48.000;7.840;2023-02-28T02:08:50;2.20;;;1.33;;
1224;SDS011;602;48.000;7.840;2023-02-28T02:11:18;1.37;;;0.77;;
1224;SDS011;602;48.000;7.840;2023-02-28T02:13:53;0.73;;;0.73;;
1224;SDS011;602;48.000;7.840;2023-02-28T02:16:35;0.50;;;0.50;;
1224;SDS011;602;48.000;7.840;2023-02-28T02:19:15;4.73;;;0.70;;
1224;SDS011;602;48.000;7.840;2023-02-28T02:22:05;0.70;;;0.40;;
1224;SDS011;602;48.000;7.840;2023-02-28T02:25:13;0.83;;;0.70;;
1224;SDS011;602;48.000;7.840;2023-02-28T02:30:59;1.33;;;0.67;;
1224;SDS011;602;48.000;7.840;2023-02-28T02:33:45;0.80;;;0.80;;
1224;SDS011;602;48.000;7.840;2023-02-28T02:36:47;0.40;;;0.40;;
1224;SDS011;602;48.000;7.840;2023-02-28T02:39:18;2.37;;;2.07;;
1224;SDS011;602;48.000;7.840;2023-02-28T02:41:51;0.80;;;0.80;;
1224;SDS011;602;48.000;7.840;2023-02-28T02:44:20;0.57;;;0.57;;
1224;SDS011;602;48.000;7.840;2023-02-28T02:46:51;0.63;;;0.63;;
1224;SDS011;602;48.000;7.840;2023-02-28T02:49:24;0.97;;;0.97;;
1224;SDS011;602;48.000;7.840;2023-02-28T02:51:54;0.60;;;0.60;;
1224;SDS011;602;48.000;7.840;2023-02-28T02:54:24;0.70;;;0.70;;
1224;SDS011;602;48.000;7.840;2023-02-28T02:56:54;0.67;;;0.67;;
1224;SDS011;602;48.000;7.840;2023-02-28T02:59:24;0.77;;;0.77;;
1224;SDS011;602;48.000;7.840;2023-02-28T03:01:54;1.53;;;0.80;;
1224;SDS011;602;48.000;7.840;2023-02-28T03:04:26;0.70;;;0.70;;
1224;SDS011;602;48.000;7.840;2023-02-28T03:06:56;1.20;;;1.07;;
1224;SDS011;602;48.000;7.840;2023-02-28T03:09:23;2.37;;;1.57;;
1224;SDS011;602;48.000;7.840;2023-02-28T03:11:52;0.40;;;0.40;;
1224;SDS011;602;48.000;7.840;2023-02-28T03:14:25;2.40;;;0.60;;
1224;SDS011;602;48.000;7.840;2023-02-28T03:20:17;0.30;;;0.30;;
1224;SDS011;602;48.000;7.840;2023-02-28T03:23:01;1.30;;;0.80;;
1224;SDS011;602;48.000;7.840;2023-02-28T03:25:37;1.70;;;1.00;;
1224;SDS011;602;48.000;7.840;2023-02-28T03:28:13;0.40;;;0.40;;
1224;SDS011;602;48.000;7.840;2023-02-28T03:30:45;0.70;;;0.70;;
1224;SDS011;602;48.000;7.840;2023-02-28T03:33:19;0.57;;;0.57;;
1224;SDS011;602;48.000;7.840;2023-02-28T03:35:51;0.90;;;0.90;;
1224;SDS011;602;48.000;7.840;2023-02-28T03:38:22;0.60;;;0.43;;
1224;SDS011;602;48.000;7.840;2023-02-28T03:40:55;0.50;;;0.50;;
1224;SDS011;602;48.000;7.840;2023-02-28T03:43:28;0.40;;;0.30;;
1224;SDS011;602;48.000;7.840;2023-02-28T03:45:58;0.73;;;0.73;;
1224;SDS011;602;48.000;7.840;2023-02-28T03:48:31;0.40;;;0.40;;
1224;SDS011;602;48.000;7.840;2023-02-28T03:51:03;1.37;;;0.70;;
1224;SDS011;602;48.000;7.840;2023-02-28T03:53:34;0.50;;;0.50;;
1224;SDS011;602;48.000;7.840;2023-02-28T03:56:05;0.93;;;0.80;;
1224;SDS011;602;48.000;7.840;2023-02-28T03:58:37;0.70;;;0.70;;
1224;SDS011;602;48.000;7.840;2023-02-28T04:01:09;0.47;;;0.47;;
1224;SDS011;602;48.000;7.840;2023-02-28T04:03:38;0.60;;;0.57;;
1224;SDS011;602;48.000;7.840;2023-02-28T04:06:07;1.13;;;0.80;;
1224;SDS011;602;48.000;7.840;2023-02-28T04:08:41;0.50;;;0.40;;
1224;SDS011;602;48.000;7.840;2023-02-28T04:11:14;1.30;;;1.10;;
1224;SDS011;602;48.000;7.840;2023-02-28T04:13:48;0.67;;;0.40;;
1224;SDS011;602;48.000;7.840;2023-02-28T04:16:15;0.43;;;0.43;;
1224;SDS011;602;48.000;7.840;2023-02-28T04:18:42;1.30;;;1.20;;
1224;SDS011;602;48.000;7.840;2023-02-28T04:21:11;0.63;;;0.63;;
1224;SDS011;602;48.000;7.840;2023-02-28T04:23:38;1.10;;;1.00;;
1224;SDS011;602;48.000;7.840;2023-02-28T04:26:05;0.93;;;0.70;;
1224;SDS011;602;48.000;7.840;2023-02-28T04:28:32;0.73;;;0.40;;
1224;SDS011;602;48.000;7.840;2023-02-28T04:31:00;0.37;;;0.37;;
1224;SDS011;602;48.000;7.840;2023-02-28T04:33:28;2.40;;;0.97;;
1224;SDS011;602;48.000;7.840;2023-02-28T04:35:59;0.93;;;0.90;;
1224;SDS011;602;48.000;7.840;2023-02-28T04:38:29;2.93;;;0.80;;
1224;SDS011;602;48.000;7.840;2023-02-28T04:40:56;1.10;;;1.10;;
1224;SDS011;602;48.000;7.840;2023-02-28T04:43:23;1.10;;;0.93;;
1224;SDS011;602;48.000;7.840;2023-02-28T04:45:51;3.33;;;2.00;;
1224;SDS011;602;48.000;7.840;2023-02-28T04:48:27;0.80;;;0.80;;
1224;SDS011;602;48.000;7.840;2023-02-28T04:51:05;0.93;;;0.60;;
1224;SDS011;602;48.000;7.840;2023-02-28T04:53:36;0.63;;;0.43;;
1224;SDS011;602;48.000;7.840;2023-02-28T04:56:05;1.33;;;0.80;;
1224;SDS011;602;48.000;7.840;2023-02-28T04:58:33;1.10;;;1.00;;
1224;SDS011;602;48.000;7.840;2023-02-28T05:01:03;1.03;;;0.70;;
1224;SDS011;602;48.000;7.840;2023-02-28T05:03:37;0.67;;;0.67;;
1224;SDS011;602;48.000;7.840;2023-02-28T05:06:05;4.23;;;0.90;;
1224;SDS011;602;48.000;7.840;2023-02-28T05:08:32;0.43;;;0.43;;
1224;SDS011;602;48.000;7.840;2023-02-28T05:11:01;0.37;;;0.37;;
1224;SDS011;602;48.000;7.840;2023-02-28T05:13:29;0.77;;;0.40;;
1224;SDS011;602;48.000;7.840;2023-02-28T05:15:56;0.90;;;0.90;;
1224;SDS011;602;48.000;7.840;2023-02-28T05:18:22;0.60;;;0.40;;
1224;SDS011;602;48.000;7.840;2023-02-28T05:20:49;0.93;;;0.93;;
1224;SDS011;602;48.000;7.840;2023-02-28T05:23:16;0.80;;;0.70;;
1224;SDS011;602;48.000;7.840;2023-02-28T05:25:45;2.40;;;0.90;;
1224;SDS011;602;48.000;7.840;2023-02-28T05:28:14;1.10;;;1.00;;
1224;SDS011;602;48.000;7.840;2023-02-28T05:30:40;0.60;;;0.60;;
1224;SDS011;602;48.000;7.840;2023-02-28T05:33:09;0.40;;;0.40;;
1224;SDS011;602;48.000;7.840;2023-02-28T05:35:37;1.27;;;0.90;;
1224;SDS011;602;48.000;7.840;2023-02-28T05:38:05;0.60;;;0.60;;
1224;SDS011;602;48.000;7.840;2023-02-28T05:40:32;1.23;;;0.83;;
1224;SDS011;602;48.000;7.840;2023-02-28T05:42:59;1.20;;;1.10;;
1224;SDS011;602;48.000;7.840;2023-02-28T05:45:27;1.60;;;1.20;;
1224;SDS011;602;48.000;7.840;2023-02-28T05:47:54;0.83;;;0.83;;
1224;SDS011;602;48.000;7.840;2023-02-28T05:50:21;1.30;;;0.80;;
1224;SDS011;602;48.000;7.840;2023-02-28T05:52:49;1.07;;;0.90;;
1224;SDS011;602;48.000;7.840;2023-02-28T05:55:16;0.73;;;0.73;;
1224;SDS011;602;48.000;7.840;2023-02-28T05:57:43;1.60;;;1.03;;
1224;SDS011;602;48.000;7.840;2023-02-28T06:00:11;0.50;;;0.40;;
1224;SDS011;602;48.000;7.840;2023-02-28T06:02:41;0.80;;;0.80;;
1224;SDS011;602;48.000;7.840;2023-02-28T06:05:09;2.03;;;1.80;;
1224;SDS011;602;48.000;7.840;2023-02-28T06:07:40;0.67;;;0.67;;
1224;SDS011;602;48.000;7.840;2023-02-28T06:10:07;0.60;;;0.60;;
1224;SDS011;602;48.000;7.840;2023-02-28T06:12:35;1.40;;;1.30;;
1224;SDS011;602;48.000;7.840;2023-02-28T06:15:03;0.30;;;0.30;;
1224;SDS011;602;48.000;7.840;2023-02-28T06:17:31;1.57;;;1.30;;
1224;SDS011;602;48.000;7.840;2023-02-28T06:19:59;1.60;;;0.93;;
1224;SDS011;602;48.000;7.840;2023-02-28T06:22:26;1.33;;;0.87;;
1224;SDS011;602;48.000;7.840;2023-02-28T06:24:53;0.80;;;0.73;;
1224;SDS011;602;48.000;7.840;2023-02-28T06:27:21;1.10;;;0.70;;
1224;SDS011;602;48.000;7.840;2023-02-28T06:29:48;2.27;;;1.60;;
1224;SDS011;602;48.000;7.840;2023-02-28T06:32:19;1.43;;;1.33;;
1224;SDS011;602;48.000;7.840;2023-02-28T06:34:46;2.70;;;1.17;;
1224;SDS011;602;48.000;7.840;2023-02-28T06:37:15;1.60;;;0.77;;
1224;SDS011;602;48.000;7.840;2023-02-28T06:39:42;3.10;;;1.40;;
1224;SDS011;602;48.000;7.840;2023-02-28T06:42:09;0.70;;;0.60;;
1224;SDS011;602;48.000;7.840;2023-02-28T06:44:36;3.13;;;1.80;;
1224;SDS011;602;48.000;7.840;2023-02-28T06:47:03;4.10;;;1.73;;
1224;SDS011;602;48.000;7.840;2023-02-28T06:49:33;4.30;;;2.70;;
1224;SDS011;602;48.000;7.840;2023-02-28T06:52:01;15.13;;;3.03;;
1224;SDS011;602;48.000;7.840;2023-02-28T06:54:29;0.70;;;0.70;;
1224;SDS011;602;48.000;7.840;2023-02-28T06:56:57;1.13;;;1.03;;
1224;SDS011;602;48.000;7.840;2023-02-28T06:59:24;0.87;;;0.87;;
1224;SDS011;602;48.000;7.840;2023-02-28T07:01:51;0.80;;;0.77;;
1224;SDS011;602;48.000;7.840;2023-02-28T07:04:17;1.17;;;1.07;;
1224;SDS011;602;48.000;7.840;2023-02-28T07:06:44;7.57;;;3.97;;
1224;SDS011;602;48.000;7.840;2023-02-28T07:09:11;4.13;;;2.70;;
1224;SDS011;602;48.000;7.840;2023-02-28T07:11:40;5.37;;;1.63;;
1224;SDS011;602;48.000;7.840;2023-02-28T07:14:08;1.80;;;1.27;;
1224;SDS011;602;48.000;7.840;2023-02-28T07:16:35;10.53;;;3.00;;
1224;SDS011;602;48.000;7.840;2023-02-28T07:19:22;2.27;;;2.10;;
1224;SDS011;602;48.000;7.840;2023-02-28T07:22:33;10.43;;;1.90;;
1224;SDS011;602;48.000;7.840;2023-02-28T07:25:33;1.17;;;1.17;;
1224;SDS011;602;48.000;7.840;2023-02-28T07:31:30;0.83;;;0.73;;
1224;SDS011;602;48.000;7.840;2023-02-28T07:34:08;0.70;;;0.70;;
1224;SDS011;602;48.000;7.840;2023-02-28T07:36:54;1.73;;;0.80;;
1224;SDS011;602;48.000;7.840;2023-02-28T07:39:33;1.60;;;0.60;;
1224;SDS011;602;48.000;7.840;2023-02-28T07:42:23;3.40;;;1.60;;
1224;SDS011;602;48.000;7.840;2023-02-28T07:45:04;0.63;;;0.63;;
1224;SDS011;602;48.000;7.840;2023-02-28T07:47:46;1.90;;;0.70;;
1224;SDS011;602;48.000;7.840;2023-02-28T07:50:32;0.80;;;0.80;;
1224;SDS011;602;48.000;7.840;2023-02-28T07:53:19;1.60;;;1.40;;
1224;SDS011;602;48.000;7.840;2023-02-28T07:55:55;1.00;;;1.00;;
1224;SDS011;602;48.000;7.840;2023-02-28T07:58:23;0.70;;;0.70;;
1224;SDS011;602;48.000;7.840;2023-02-28T08:00:52;1.50;;;1.40;;
1224;SDS011;602;48.000;7.840;2023-02-28T08:03:19;1.60;;;1.50;;
1224;SDS011;602;48.000;7.840;2023-02-28T08:05:47;5.00;;;3.90;;
1224;SDS011;602;48.000;7.840;2023-02-28T08:08:14;7.00;;;3.30;;
1224;SDS011;602;48.000;7.840;2023-02-28T08:10:42;1.33;;;1.20;;
1224;SDS011;602;48.000;7.840;2023-02-28T08:13:09;1.20;;;0.97;;
1224;SDS011;602;48.000;7.840;2023-02-28T08:15:36;2.07;;;1.40;;
1224;SDS011;602;48.000;7.840;2023-02-28T08:18:04;0.73;;;0.67;;
1224;SDS011;602;48.000;7.840;2023-02-28T08:20:31;2.83;;;0.97;;
1224;SDS011;602;48.000;7.840;2023-02-28T08:22:58;1.70;;;1.60;;
1224;SDS011;602;48.000;7.840;2023-02-28T08:25:25;1.87;;;1.50;;
1224;SDS011;602;48.000;7.840;2023-02-28T08:27:52;3.70;;;1.40;;
1224;SDS011;602;48.000;7.840;2023-02-28T08:30:19;1.27;;;0.77;;
1224;SDS011;602;48.000;7.840;2023-02-28T08:32:46;0.83;;;0.83;;
1224;SDS011;602;48.000;7.840;2023-02-28T08:35:14;1.00;;;1.00;;
1224;SDS011;602;48.000;7.840;2023-02-28T08:37:41;2.20;;;1.17;;
1224;SDS011;602;48.000;7.840;2023-02-28T08:40:08;1.73;;;0.60;;
1224;SDS011;602;48.000;7.840;2023-02-28T08:42:38;0.97;;;0.90;;
1224;SDS011;602;48.000;7.840;2023-02-28T08:45:05;1.93;;;1.70;;
1224;SDS011;602;48.000;7.840;2023-02-28T08:47:33;0.83;;;0.83;;
1224;SDS011;602;48.000;7.840;2023-02-28T08:49:59;3.30;;;1.50;;
1224;SDS011;602;48.000;7.840;2023-02-28T08:52:28;1.70;;;1.60;;
1224;SDS011;602;48.000;7.840;2023-02-28T08:54:54;0.93;;;0.93;;
1224;SDS011;602;48.000;7.840;2023-02-28T08:57:21;1.33;;;1.27;;
1224;SDS011;602;48.000;7.840;2023-02-28T08:59:50;1.00;;;0.90;;
1224;SDS011;602;48.000;7.840;2023-02-28T09:02:17;2.63;;;1.07;;
1224;SDS011;602;48.000;7.840;2023-02-28T09:04:45;1.43;;;1.33;;
1224;SDS011;602;48.000;7.840;2023-02-28T09:07:11;1.63;;;1.53;;
1224;SDS011;602;48.000;7.840;2023-02-28T09:09:40;0.70;;;0.70;;
1224;SDS011;602;48.000;7.840;2023-02-28T09:12:18;1.60;;;1.50;;
1224;SDS011;602;48.000;7.840;2023-02-28T09:14:45;3.60;;;3.13;;
1224;SDS011;602;48.000;7.840;2023-02-28T09:17:12;2.50;;;1.43;;
1224;SDS011;602;48.000;7.840;2023-02-28T09:19:40;2.40;;;1.77;;
1224;SDS011;602;48.000;7.840;2023-02-28T09:22:07;3.73;;;3.33;;
1224;SDS011;602;48.000;7.840;2023-02-28T09:24:35;3.30;;;1.90;;
1224;SDS011;602;48.000;7.840;2023-02-28T09:27:03;2.07;;;1.10;;
1224;SDS011;602;48.000;7.840;2023-02-28T09:29:31;2.23;;;1.67;;
1224;SDS011;602;48.000;7.840;2023-02-28T09:31:59;3.37;;;1.77;;
1224;SDS011;602;48.000;7.840;2023-02-28T09:34:26;3.70;;;1.47;;
1224;SDS011;602;48.000;7.840;2023-02-28T09:36:56;1.47;;;1.33;;
1224;SDS011;602;48.000;7.840;2023-02-28T09:39:23;2.10;;;1.90;;
1224;SDS011;602;48.000;7.840;2023-02-28T09:41:52;1.50;;;1.40;;
1224;SDS011;602;48.000;7.840;2023-02-28T09:44:22;1.43;;;1.33;;
1224;SDS011;602;48.000;7.840;2023-02-28T09:46:55;3.97;;;2.43;;
1224;SDS011;602;48.000;7.840;2023-02-28T09:49:28;6.03;;;2.90;;
1224;SDS011;602;48.000;7.840;2023-02-28T09:52:02;2.33;;;2.13;;
1224;SDS011;602;48.000;7.840;2023-02-28T09:54:31;3.90;;;2.70;;
1224;SDS011;602;48.000;7.840;2023-02-28T09:56:59;1.43;;;1.33;;
1224;SDS011;602;48.000;7.840;2023-02-28T09:59:37;6.17;;;2.10;;
1224;SDS011;602;48.000;7.840;2023-02-28T10:02:17;4.10;;;2.80;;
1224;SDS011;602;48.000;7.840;2023-02-28T10:05:05;2.20;;;2.03;;
1224;SDS011;602;48.000;7.840;2023-02-28T10:07:45;2.60;;;2.40;;
1224;SDS011;602;48.000;7.840;2023-02-28T10:10:26;2.77;;;2.07;;
1224;SDS011;602;48.000;7.840;2023-02-28T10:12:56;1.97;;;1.77;;
1224;SDS011;602;48.000;7.840;2023-02-28T10:15:27;2.63;;;2.40;;
1224;SDS011;602;48.000;7.840;2023-02-28T10:17:58;1.53;;;1.43;;
1224;SDS011;602;48.000;7.840;2023-02-28T10:20:27;5.47;;;3.20;;
1224;SDS011;602;48.000;7.840;2023-02-28T10:22:57;1.90;;;1.70;;
1224;SDS011;602;48.000;7.840;2023-02-28T10:25:32;2.47;;;2.30;;
1224;SDS011;602;48.000;7.840;2023-02-28T10:28:01;3.30;;;2.90;;
1224;SDS011;602;48.000;7.840;2023-02-28T10:30:36;2.57;;;2.37;;
1224;SDS011;602;48.000;7.840;2023-02-28T10:33:08;3.20;;;2.37;;
1224;SDS011;602;48.000;7.840;2023-02-28T10:35:43;2.70;;;2.50;;
1224;SDS011;602;48.000;7.840;2023-02-28T10:38:12;2.83;;;2.63;;
1224;SDS011;602;48.000;7.840;2023-02-28T10:40:47;3.00;;;1.90;;
1224;SDS011;602;48.000;7.840;2023-02-28T10:43:22;3.40;;;2.70;;
1224;SDS011;602;48.000;7.840;2023-02-28T10:46:09;3.43;;;3.13;;
1224;SDS011;602;48.000;7.840;2023-02-28T10:49:02;2.93;;;2.60;;
1224;SDS011;602;48.000;7.840;2023-02-28T10:51:41;2.53;;;2.33;;
1224;SDS011;602;48.000;7.840;2023-02-28T10:54:24;6.37;;;3.67;;
1224;SDS011;602;48.000;7.840;2023-02-28T10:57:15;4.80;;;4.20;;
1224;SDS011;602;48.000;7.840;2023-02-28T11:00:05;3.93;;;3.27;;
1224;SDS011;602;48.000;7.840;2023-02-28T11:03:09;2.83;;;2.63;;
1224;SDS011;602;48.000;7.840;2023-02-28T11:06:05;8.03;;;1.53;;
1224;SDS011;602;48.000;7.840;2023-02-28T11:09:36;1.53;;;1.43;;
1224;SDS011;602;48.000;7.840;2023-02-28T11:12:25;4.03;;;2.90;;
1224;SDS011;602;48.000;7.840;2023-02-28T11:15:18;3.40;;;3.10;;
1224;SDS011;602;48.000;7.840;2023-02-28T11:21:08;3.50;;;3.20;;
1224;SDS011;602;48.000;7.840;2023-02-28T11:24:00;3.13;;;2.70;;
1224;SDS011;602;48.000;7.840;2023-02-28T11:26:39;3.27;;;2.97;;
1224;SDS011;602;48.000;7.840;2023-02-28T11:29:19;4.80;;;3.77;;
1224;SDS011;602;48.000;7.840;2023-02-28T11:32:16;2.60;;;2.40;;
1224;SDS011;602;48.000;7.840;2023-02-28T11:35:14;4.93;;;3.37;;
1224;SDS011;602;48.000;7.840;2023-02-28T11:38:04;3.90;;;3.17;;
1224;SDS011;602;48.000;7.840;2023-02-28T11:40:39;3.67;;;2.93;;
1224;SDS011;602;48.000;7.840;2023-02-28T11:43:21;3.27;;;2.70;;
1224;SDS011;602;48.000;7.840;2023-02-28T11:46:14;2.13;;;1.83;;
1224;SDS011;602;48.000;7.840;2023-02-28T11:48:58;6.97;;;3.73;;
1224;SDS011;602;48.000;7.840;2023-02-28T11:51:56;2.90;;;2.60;;
1224;SDS011;602;48.000;7.840;2023-02-28T12:01:00;3.40;;;3.10;;
1224;SDS011;602;48.000;7.840;2023-02-28T12:03:48;2.40;;;2.20;;
1224;SDS011;602;48.000;7.840;2023-02-28T12:06:27;2.93;;;2.43;;
1224;SDS011;602;48.000;7.840;2023-02-28T12:12:33;2.77;;;2.47;;
1224;SDS011;602;48.000;7.840;2023-02-28T12:15:31;3.33;;;3.00;;
1224;SDS011;602;48.000;7.840;2023-02-28T12:18:47;2.83;;;2.40;;
1224;SDS011;602;48.000;7.840;2023-02-28T12:21:41;3.47;;;1.83;;
1224;SDS011;602;48.000;7.840;2023-02-28T12:24:34;3.00;;;2.67;;
1224;SDS011;602;48.000;7.840;2023-02-28T12:27:15;1.53;;;1.30;;
1224;SDS011;602;48.000;7.840;2023-02-28T12:29:47;7.60;;;4.47;;
1224;SDS011;602;48.000;7.840;2023-02-28T12:32:23;2.60;;;2.30;;
1224;SDS011;602;48.000;7.840;2023-02-28T12:34:55;5.53;;;3.03;;
1224;SDS011;602;48.000;7.840;2023-02-28T12:37:29;1.43;;;1.30;;
1224;SDS011;602;48.000;7.840;2023-02-28T12:40:09;3.30;;;2.47;;
1224;SDS011;602;48.000;7.840;2023-02-28T12:42:39;2.30;;;1.53;;
1224;SDS011;602;48.000;7.840;2023-02-28T12:45:12;3.23;;;1.73;;
1224;SDS011;602;48.000;7.840;2023-02-28T12:47:48;3.60;;;2.67;;
1224;SDS011;602;48.000;7.840;2023-02-28T12:50:19;2.77;;;2.03;;
1224;SDS011;602;48.000;7.840;2023-02-28T12:52:50;3.50;;;2.60;;
1224;SDS011;602;48.000;7.840;2023-02-28T12:55:27;4.70;;;2.70;;
1224;SDS011;602;48.000;7.840;2023-02-28T12:58:02;3.67;;;3.00;;
1224;SDS011;602;48.000;7.840;2023-02-28T13:00:35;22.50;;;11.60;;
1224;SDS011;602;48.000;7.840;2023-02-28T13:03:18;9.43;;;5.40;;
1224;SDS011;602;48.000;7.840;2023-02-28T13:06:05;3.00;;;2.70;;
1224;SDS011;602;48.000;7.840;2023-02-28T13:08:50;2.40;;;2.20;;
1224;SDS011;602;48.000;7.840;2023-02-28T13:11:47;3.93;;;2.77;;
1224;SDS011;602;48.000;7.840;2023-02-28T13:14:22;1.97;;;1.73;;
1224;SDS011;602;48.000;7.840;2023-02-28T13:16:57;3.73;;;1.83;;
1224;SDS011;602;48.000;7.840;2023-02-28T13:19:26;2.50;;;1.53;;
1224;SDS011;602;48.000;7.840;2023-02-28T13:21:55;2.13;;;1.93;;
1224;SDS011;602;48.000;7.840;2023-02-28T13:27:20;4.43;;;2.27;;
1224;SDS011;602;48.000;7.840;2023-02-28T13:29:50;3.30;;;3.00;;
1224;SDS011;602;48.000;7.840;2023-02-28T13:44:07;2.70;;;2.07;;
1224;SDS011;602;48.000;7.840;2023-02-28T13:46:36;3.60;;;2.83;;
1224;SDS011;602;48.000;7.840;2023-02-28T13:49:27;1.40;;;1.20;;
1224;SDS011;602;48.000;7.840;2023-02-28T13:52:02;2.97;;;2.33;;
1224;SDS011;602;48.000;7.840;2023-02-28T13:54:43;3.90;;;2.47;;
1224;SDS011;602;48.000;7.840;2023-02-28T13:57:25;2.63;;;2.17;;
1224;SDS011;602;48.000;7.840;2023-02-28T14:00:05;3.53;;;2.00;;
1224;SDS011;602;48.000;7.840;2023-02-28T14:02:46;3.70;;;2.20;;
1224;SDS011;602;48.000;7.840;2023-02-28T14:05:28;2.37;;;2.17;;
1224;SDS011;602;48.000;7.840;2023-02-28T14:07:59;4.73;;;2.30;;
1224;SDS011;602;48.000;7.840;2023-02-28T14:10:33;3.40;;;3.07;;
1224;SDS011;602;48.000;7.840;2023-02-28T14:13:11;3.77;;;2.50;;
1224;SDS011;602;48.000;7.840;2023-02-28T14:15:58;2.47;;;2.00;;
1224;SDS011;602;48.000;7.840;2023-02-28T14:18:28;2.87;;;2.67;;
1224;SDS011;602;48.000;7.840;2023-02-28T14:20:59;4.10;;;2.00;;
1224;SDS011;602;48.000;7.840;2023-02-28T14:26:46;3.10;;;2.27;;
1224;SDS011;602;48.000;7.840;2023-02-28T14:32:35;2.90;;;2.70;;
1224;SDS011;602;48.000;7.840;2023-02-28T14:35:13;3.10;;;2.60;;
1224;SDS011;602;48.000;7.840;2023-02-28T14:37:49;3.67;;;2.00;;
1224;SDS011;602;48.000;7.840;2023-02-28T14:40:17;3.27;;;3.00;;
1224;SDS011;602;48.000;7.840;2023-02-28T14:42:47;5.33;;;2.63;;
1224;SDS011;602;48.000;7.840;2023-02-28T14:45:21;3.97;;;2.97;;
1224;SDS011;602;48.000;7.840;2023-02-28T14:47:49;3.20;;;1.80;;
1224;SDS011;602;48.000;7.840;2023-02-28T14:50:18;5.90;;;3.40;;
1224;SDS011;602;48.000;7.840;2023-02-28T14:52:46;2.67;;;2.20;;
1224;SDS011;602;48.000;7.840;2023-02-28T14:55:16;4.30;;;3.90;;
1224;SDS011;602;48.000;7.840;2023-02-28T14:57:50;3.70;;;3.33;;
1224;SDS011;602;48.000;7.840;2023-02-28T15:00:20;3.27;;;3.00;;
1224;SDS011;602;48.000;7.840;2023-02-28T15:02:49;4.43;;;2.90;;
1224;SDS011;602;48.000;7.840;2023-02-28T15:05:28;2.47;;;2.27;;
1224;SDS011;602;48.000;7.840;2023-02-28T15:08:04;2.93;;;2.43;;
1224;SDS011;602;48.000;7.840;2023-02-28T15:10:33;2.50;;;2.30;;
1224;SDS011;602;48.000;7.840;2023-02-28T15:13:01;2.67;;;2.47;;
1224;SDS011;602;48.000;7.840;2023-02-28T15:15:35;3.60;;;1.93;;
1224;SDS011;602;48.000;7.840;2023-02-28T15:18:10;9.90;;;3.33;;
1224;SDS011;602;48.000;7.840;2023-02-28T15:20:43;6.10;;;3.50;;
1224;SDS011;602;48.000;7.840;2023-02-28T15:23:11;3.30;;;2.43;;
1224;SDS011;602;48.000;7.840;2023-02-28T15:25:39;1.90;;;1.70;;
1224;SDS011;602;48.000;7.840;2023-02-28T15:28:09;6.47;;;4.00;;
1224;SDS011;602;48.000;7.840;2023-02-28T15:30:49;4.23;;;2.73;;
1224;SDS011;602;48.000;7.840;2023-02-28T15:33:19;2.10;;;1.97;;
1224;SDS011;602;48.000;7.840;2023-02-28T15:35:47;2.73;;;2.43;;
1224;SDS011;602;48.000;7.840;2023-02-28T15:38:15;3.60;;;2.70;;
1224;SDS011;602;48.000;7.840;2023-02-28T15:40:50;3.47;;;2.90;;
1224;SDS011;602;48.000;7.840;2023-02-28T15:43:26;2.60;;;2.40;;
1224;SDS011;602;48.000;7.840;2023-02-28T15:45:55;5.00;;;2.40;;
1224;SDS011;602;48.000;7.840;2023-02-28T15:48:27;1.57;;;1.20;;
1224;SDS011;602;48.000;7.840;2023-02-28T15:50:56;7.20;;;2.57;;
1224;SDS011;602;48.000;7.840;2023-02-28T15:53:25;4.40;;;3.43;;
1224;SDS011;602;48.000;7.840;2023-02-28T15:55:58;2.80;;;1.83;;
1224;SDS011;602;48.000;7.840;2023-02-28T15:58:27;3.37;;;2.07;;
1224;SDS011;602;48.000;7.840;2023-02-28T16:01:04;3.63;;;2.17;;
1224;SDS011;602;48.000;7.840;2023-02-28T16:03:37;3.23;;;1.50;;
1224;SDS011;602;48.000;7.840;2023-02-28T16:06:22;2.13;;;1.93;;
1224;SDS011;602;48.000;7.840;2023-02-28T16:09:10;1.97;;;1.77;;
1224;SDS011;602;48.000;7.840;2023-02-28T16:11:42;3.90;;;2.00;;
1224;SDS011;602;48.000;7.840;2023-02-28T16:14:12;2.70;;;2.20;;
1224;SDS011;602;48.000;7.840;2023-02-28T16:16:43;4.00;;;3.13;;
1224;SDS011;602;48.000;7.840;2023-02-28T16:19:11;3.20;;;2.40;;
1224;SDS011;602;48.000;7.840;2023-02-28T16:21:38;2.70;;;2.37;;
1224;SDS011;602;48.000;7.840;2023-02-28T16:24:05;2.53;;;2.03;;
1224;SDS011;602;48.000;7.840;2023-02-28T16:26:32;2.73;;;1.80;;
1224;SDS011;602;48.000;7.840;2023-02-28T16:29:03;4.97;;;2.70;;
1224;SDS011;602;48.000;7.840;2023-02-28T16:31:31;6.10;;;3.73;;
1224;SDS011;602;48.000;7.840;2023-02-28T16:34:01;5.37;;;3.77;;
1224;SDS011;602;48.000;7.840;2023-02-28T16:36:28;7.17;;;3.43;;
1224;SDS011;602;48.000;7.840;2023-02-28T16:38:56;4.40;;;3.00;;
1224;SDS011;602;48.000;7.840;2023-02-28T16:41:23;9.70;;;5.10;;
1224;SDS011;602;48.000;7.840;2023-02-28T16:43:52;9.97;;;3.30;;
1224;SDS011;602;48.000;7.840;2023-02-28T16:46:24;3.27;;;2.63;;
1224;SDS011;602;48.000;7.840;2023-02-28T16:48:56;3.30;;;3.00;;